Pick City, North Dakota
Current Conditions -  °F | °C
As of 6:15 PM on Monday 20 Oct 2014 (Local Time) from KHZE Reporting Station
Clear Clear  
Wind Chill: 57°   Ceiling: Unl
Heat Index: 57°   Visibility: 10mi
Dew Point: 39°   Wind: 3mph
Humidity: 51%   Direction: 80°E
Pressure: 29.92"   Gusts: NA
Location:  47.396°N, 101.602°W
Report Text: KHZE 210015Z AUTO 08003KT 10SM CLR 14/04 A2992 RMK AO2
Loading
Personal Weather Stations






























Interactive Weather Map
Tropical Storm Tracking
New forecast layout! Learn more

10-Day Weather Forecast

Advertisements
Track Severe Weather on mobile